sensor_id;sensor_type;location;lat;lon;timestamp;pressure;altitude;pressure_sealevel;temperature;humidity
21728;BME280;11026;50.560;17.852;2023-04-20T00:01:29;99876.22;;;5.73;100.00
21728;BME280;11026;50.560;17.852;2023-04-20T00:03:57;99866.63;;;5.72;100.00
21728;BME280;11026;50.560;17.852;2023-04-20T00:06:25;99873.56;;;5.74;100.00
21728;BME280;11026;50.560;17.852;2023-04-20T00:08:55;99871.97;;;5.65;100.00
21728;BME280;11026;50.560;17.852;2023-04-20T00:11:24;99873.78;;;5.63;100.00
21728;BME280;11026;50.560;17.852;2023-04-20T00:13:54;99872.03;;;5.62;100.00
21728;BME280;11026;50.560;17.852;2023-04-20T00:16:22;99875.50;;;5.64;100.00
21728;BME280;11026;50.560;17.852;2023-04-20T00:18:51;99874.50;;;5.70;100.00
21728;BME280;11026;50.560;17.852;2023-04-20T00:21:18;99873.72;;;5.66;100.00
21728;BME280;11026;50.560;17.852;2023-04-20T00:23:50;99875.41;;;5.71;100.00
21728;BME280;11026;50.560;17.852;2023-04-20T00:26:18;99874.59;;;5.65;100.00
21728;BME280;11026;50.560;17.852;2023-04-20T00:28:46;99879.88;;;5.64;100.00
21728;BME280;11026;50.560;17.852;2023-04-20T00:31:14;99871.09;;;5.66;100.00
21728;BME280;11026;50.560;17.852;2023-04-20T00:33:41;99873.63;;;5.71;100.00
21728;BME280;11026;50.560;17.852;2023-04-20T00:36:08;99876.25;;;5.71;100.00
21728;BME280;11026;50.560;17.852;2023-04-20T00:38:36;99869.25;;;5.72;100.00
21728;BME280;11026;50.560;17.852;2023-04-20T00:41:03;99865.75;;;5.71;100.00
21728;BME280;11026;50.560;17.852;2023-04-20T00:43:30;99874.50;;;5.72;100.00
21728;BME280;11026;50.560;17.852;2023-04-20T00:46:00;99863.22;;;5.66;100.00
21728;BME280;11026;50.560;17.852;2023-04-20T00:48:30;99867.38;;;5.77;100.00
21728;BME280;11026;50.560;17.852;2023-04-20T00:50:58;99864.75;;;5.77;100.00
21728;BME280;11026;50.560;17.852;2023-04-20T00:53:26;99853.50;;;5.70;100.00
21728;BME280;11026;50.560;17.852;2023-04-20T00:55:53;99848.91;;;5.81;100.00
21728;BME280;11026;50.560;17.852;2023-04-20T00:58:21;99850.69;;;5.81;100.00
21728;BME280;11026;50.560;17.852;2023-04-20T01:00:48;99862.91;;;5.82;100.00
21728;BME280;11026;50.560;17.852;2023-04-20T01:03:15;99860.25;;;5.83;100.00
21728;BME280;11026;50.560;17.852;2023-04-20T01:05:50;99861.16;;;5.82;100.00
21728;BME280;11026;50.560;17.852;2023-04-20T01:08:19;99861.19;;;5.81;100.00
21728;BME280;11026;50.560;17.852;2023-04-20T01:10:47;99863.69;;;5.87;100.00
21728;BME280;11026;50.560;17.852;2023-04-20T01:13:14;99866.28;;;5.90;100.00
21728;BME280;11026;50.560;17.852;2023-04-20T01:15:42;99855.94;;;5.81;100.00
21728;BME280;11026;50.560;17.852;2023-04-20T01:18:09;99864.53;;;5.89;100.00
21728;BME280;11026;50.560;17.852;2023-04-20T01:20:37;99860.16;;;5.88;100.00
21728;BME280;11026;50.560;17.852;2023-04-20T01:23:05;99860.91;;;5.96;100.00
21728;BME280;11026;50.560;17.852;2023-04-20T01:25:32;99853.88;;;5.98;100.00
21728;BME280;11026;50.560;17.852;2023-04-20T01:28:00;99859.19;;;5.95;100.00
21728;BME280;11026;50.560;17.852;2023-04-20T01:30:28;99853.16;;;5.88;100.00
21728;BME280;11026;50.560;17.852;2023-04-20T01:32:55;99852.25;;;5.91;100.00
21728;BME280;11026;50.560;17.852;2023-04-20T01:35:29;99847.75;;;5.98;100.00
21728;BME280;11026;50.560;17.852;2023-04-20T01:37:56;99829.25;;;6.04;100.00
21728;BME280;11026;50.560;17.852;2023-04-20T01:40:24;99825.00;;;5.97;100.00
21728;BME280;11026;50.560;17.852;2023-04-20T01:42:52;99818.97;;;5.93;100.00
21728;BME280;11026;50.560;17.852;2023-04-20T01:45:19;99818.13;;;5.89;100.00
21728;BME280;11026;50.560;17.852;2023-04-20T01:47:53;99827.81;;;5.86;100.00
21728;BME280;11026;50.560;17.852;2023-04-20T01:50:20;99836.72;;;5.79;100.00
21728;BME280;11026;50.560;17.852;2023-04-20T01:52:48;99836.72;;;5.79;100.00
21728;BME280;11026;50.560;17.852;2023-04-20T01:55:15;99841.19;;;5.75;100.00
21728;BME280;11026;50.560;17.852;2023-04-20T01:57:46;99835.97;;;5.72;100.00
21728;BME280;11026;50.560;17.852;2023-04-20T02:00:14;99839.34;;;5.79;100.00
21728;BME280;11026;50.560;17.852;2023-04-20T02:02:41;99844.56;;;5.80;100.00
21728;BME280;11026;50.560;17.852;2023-04-20T02:05:09;99840.16;;;5.82;100.00
21728;BME280;11026;50.560;17.852;2023-04-20T02:07:38;99845.22;;;5.93;100.00
21728;BME280;11026;50.560;17.852;2023-04-20T02:10:12;99836.41;;;5.96;100.00
21728;BME280;11026;50.560;17.852;2023-04-20T02:12:40;99849.50;;;5.97;100.00
21728;BME280;11026;50.560;17.852;2023-04-20T02:15:10;99837.25;;;5.98;100.00
21728;BME280;11026;50.560;17.852;2023-04-20T02:17:37;99837.25;;;5.98;100.00
21728;BME280;11026;50.560;17.852;2023-04-20T02:20:06;99845.16;;;5.96;100.00
21728;BME280;11026;50.560;17.852;2023-04-20T02:22:37;99838.66;;;5.69;100.00
21728;BME280;11026;50.560;17.852;2023-04-20T02:25:05;99842.78;;;5.82;100.00
21728;BME280;11026;50.560;17.852;2023-04-20T02:27:34;99844.47;;;5.85;100.00
21728;BME280;11026;50.560;17.852;2023-04-20T02:30:02;99844.84;;;5.65;100.00
21728;BME280;11026;50.560;17.852;2023-04-20T02:32:30;99852.34;;;5.38;100.00
21728;BME280;11026;50.560;17.852;2023-04-20T02:34:58;99854.38;;;5.23;100.00
21728;BME280;11026;50.560;17.852;2023-04-20T02:37:33;99851.09;;;5.10;100.00
21728;BME280;11026;50.560;17.852;2023-04-20T02:40:02;99846.53;;;5.23;100.00
21728;BME280;11026;50.560;17.852;2023-04-20T02:42:33;99840.03;;;5.43;100.00
21728;BME280;11026;50.560;17.852;2023-04-20T02:45:01;99851.25;;;5.52;100.00
21728;BME280;11026;50.560;17.852;2023-04-20T02:47:29;99846.75;;;5.57;100.00
21728;BME280;11026;50.560;17.852;2023-04-20T02:49:57;99844.13;;;5.58;100.00
21728;BME280;11026;50.560;17.852;2023-04-20T02:52:24;99843.28;;;5.56;100.00
21728;BME280;11026;50.560;17.852;2023-04-20T02:54:52;99844.00;;;5.64;100.00
21728;BME280;11026;50.560;17.852;2023-04-20T02:57:19;99844.75;;;5.70;100.00
21728;BME280;11026;50.560;17.852;2023-04-20T02:59:47;99843.00;;;5.70;100.00
21728;BME280;11026;50.560;17.852;2023-04-20T03:02:14;99845.84;;;5.59;100.00
21728;BME280;11026;50.560;17.852;2023-04-20T03:04:43;99840.47;;;5.65;100.00
21728;BME280;11026;50.560;17.852;2023-04-20T03:07:10;99842.13;;;5.70;100.00
21728;BME280;11026;50.560;17.852;2023-04-20T03:09:41;99840.31;;;5.73;100.00
21728;BME280;11026;50.560;17.852;2023-04-20T03:12:08;99847.34;;;5.73;100.00
21728;BME280;11026;50.560;17.852;2023-04-20T03:14:36;99833.34;;;5.72;100.00
21728;BME280;11026;50.560;17.852;2023-04-20T03:17:03;99841.91;;;5.82;100.00
21728;BME280;11026;50.560;17.852;2023-04-20T03:19:31;99837.66;;;5.76;100.00
21728;BME280;11026;50.560;17.852;2023-04-20T03:21:59;99836.66;;;5.82;100.00
21728;BME280;11026;50.560;17.852;2023-04-20T03:24:26;99844.34;;;5.93;100.00
21728;BME280;11026;50.560;17.852;2023-04-20T03:26:54;99834.66;;;5.96;100.00
21728;BME280;11026;50.560;17.852;2023-04-20T03:29:21;99838.19;;;5.95;100.00
21728;BME280;11026;50.560;17.852;2023-04-20T03:31:49;99846.72;;;6.06;100.00
21728;BME280;11026;50.560;17.852;2023-04-20T03:34:17;99844.97;;;6.05;100.00
21728;BME280;11026;50.560;17.852;2023-04-20T03:36:45;99851.28;;;5.97;100.00
21728;BME280;11026;50.560;17.852;2023-04-20T03:39:14;99858.25;;;5.98;100.00
21728;BME280;11026;50.560;17.852;2023-04-20T03:41:42;99847.69;;;6.02;100.00
21728;BME280;11026;50.560;17.852;2023-04-20T03:44:16;99852.84;;;6.05;100.00
21728;BME280;11026;50.560;17.852;2023-04-20T03:46:45;99859.00;;;6.04;100.00
21728;BME280;11026;50.560;17.852;2023-04-20T03:49:15;99859.06;;;6.01;100.00
21728;BME280;11026;50.560;17.852;2023-04-20T03:51:44;99863.44;;;6.01;100.00
21728;BME280;11026;50.560;17.852;2023-04-20T03:54:13;99869.50;;;6.04;100.00
21728;BME280;11026;50.560;17.852;2023-04-20T03:56:41;99865.25;;;5.99;100.00
21728;BME280;11026;50.560;17.852;2023-04-20T03:59:10;99866.91;;;6.03;100.00
21728;BME280;11026;50.560;17.852;2023-04-20T04:01:38;99869.50;;;6.04;100.00
21728;BME280;11026;50.560;17.852;2023-04-20T04:04:07;99865.91;;;6.08;100.00
21728;BME280;11026;50.560;17.852;2023-04-20T04:06:35;99872.06;;;6.07;100.00
21728;BME280;11026;50.560;17.852;2023-04-20T04:09:02;99870.25;;;6.11;100.00
21728;BME280;11026;50.560;17.852;2023-04-20T04:11:30;99872.88;;;6.11;100.00
21728;BME280;11026;50.560;17.852;2023-04-20T04:13:57;99879.91;;;6.10;100.00
21728;BME280;11026;50.560;17.852;2023-04-20T04:16:25;99877.28;;;6.10;100.00
21728;BME280;11026;50.560;17.852;2023-04-20T04:18:52;99875.47;;;6.12;100.00
21728;BME280;11026;50.560;17.852;2023-04-20T04:21:21;99870.13;;;6.17;100.00
21728;BME280;11026;50.560;17.852;2023-04-20T04:23:49;99867.47;;;6.19;100.00
21728;BME280;11026;50.560;17.852;2023-04-20T04:26:17;99874.50;;;6.16;100.00
21728;BME280;11026;50.560;17.852;2023-04-20T04:28:50;99875.25;;;6.23;100.00
21728;BME280;11026;50.560;17.852;2023-04-20T04:31:17;99877.94;;;6.22;100.00
21728;BME280;11026;50.560;17.852;2023-04-20T04:33:45;99880.66;;;6.15;100.00
21728;BME280;11026;50.560;17.852;2023-04-20T04:36:12;99873.59;;;6.18;100.00
21728;BME280;11026;50.560;17.852;2023-04-20T04:38:43;99882.22;;;6.24;100.00
21728;BME280;11026;50.560;17.852;2023-04-20T04:41:11;99886.69;;;6.21;100.00
21728;BME280;11026;50.560;17.852;2023-04-20T04:43:40;99885.81;;;6.20;100.00
21728;BME280;11026;50.560;17.852;2023-04-20T04:46:11;99891.00;;;6.23;100.00
21728;BME280;11026;50.560;17.852;2023-04-20T04:48:40;99898.94;;;6.22;100.00
21728;BME280;11026;50.560;17.852;2023-04-20T04:51:10;99897.13;;;6.24;100.00
21728;BME280;11026;50.560;17.852;2023-04-20T04:53:37;99898.84;;;6.25;100.00
21728;BME280;11026;50.560;17.852;2023-04-20T04:56:06;99897.09;;;6.25;100.00
21728;BME280;11026;50.560;17.852;2023-04-20T04:58:33;99890.88;;;6.29;100.00
21728;BME280;11026;50.560;17.852;2023-04-20T05:01:00;99901.38;;;6.31;100.00
21728;BME280;11026;50.560;17.852;2023-04-20T05:03:27;99900.53;;;6.29;100.00
21728;BME280;11026;50.560;17.852;2023-04-20T05:05:55;99893.44;;;6.34;100.00
21728;BME280;11026;50.560;17.852;2023-04-20T05:08:22;99892.41;;;6.39;100.00
21728;BME280;11026;50.560;17.852;2023-04-20T05:10:59;99887.00;;;6.47;100.00
21728;BME280;11026;50.560;17.852;2023-04-20T05:13:27;99896.75;;;6.42;100.00
21728;BME280;11026;50.560;17.852;2023-04-20T05:15:54;99895.69;;;6.49;100.00
21728;BME280;11026;50.560;17.852;2023-04-20T05:18:21;99897.41;;;6.53;100.00
21728;BME280;11026;50.560;17.852;2023-04-20T05:20:48;99899.25;;;6.48;100.00
21728;BME280;11026;50.560;17.852;2023-04-20T05:23:16;99902.78;;;6.47;100.00
21728;BME280;11026;50.560;17.852;2023-04-20T05:25:49;99901.88;;;6.48;100.00
21728;BME280;11026;50.560;17.852;2023-04-20T05:28:18;99907.06;;;6.51;100.00
21728;BME280;11026;50.560;17.852;2023-04-20T05:30:46;99906.03;;;6.58;100.00
21728;BME280;11026;50.560;17.852;2023-04-20T05:33:13;99905.84;;;6.68;100.00
21728;BME280;11026;50.560;17.852;2023-04-20T05:35:41;99906.78;;;6.63;100.00
21728;BME280;11026;50.560;17.852;2023-04-20T05:38:08;99905.88;;;6.64;100.00
21728;BME280;11026;50.560;17.852;2023-04-20T05:40:42;99911.09;;;6.68;100.00
21728;BME280;11026;50.560;17.852;2023-04-20T05:43:09;99908.22;;;6.78;100.00
21728;BME280;11026;50.560;17.852;2023-04-20T05:45:39;99913.66;;;6.71;100.00
21728;BME280;11026;50.560;17.852;2023-04-20T05:48:08;99909.88;;;6.82;100.00
21728;BME280;11026;50.560;17.852;2023-04-20T05:50:36;99912.69;;;6.75;100.00
21728;BME280;11026;50.560;17.852;2023-04-20T05:53:03;99915.25;;;6.78;100.00
21728;BME280;11026;50.560;17.852;2023-04-20T05:55:32;99911.72;;;6.79;100.00
21728;BME280;11026;50.560;17.852;2023-04-20T05:57:59;99926.66;;;6.77;100.00
21728;BME280;11026;50.560;17.852;2023-04-20T06:00:29;99919.72;;;6.73;100.00
21728;BME280;11026;50.560;17.852;2023-04-20T06:02:57;99924.06;;;6.75;100.00
21728;BME280;11026;50.560;17.852;2023-04-20T06:05:31;99931.03;;;6.78;100.00
21728;BME280;11026;50.560;17.852;2023-04-20T06:08:00;99934.19;;;6.92;100.00
21728;BME280;11026;50.560;17.852;2023-04-20T06:10:28;99933.44;;;6.87;100.00
21728;BME280;11026;50.560;17.852;2023-04-20T06:13:00;99928.25;;;6.84;100.00
21728;BME280;11026;50.560;17.852;2023-04-20T06:15:29;99929.91;;;6.89;100.00
21728;BME280;11026;50.560;17.852;2023-04-20T06:17:57;99930.50;;;7.01;100.00
21728;BME280;11026;50.560;17.852;2023-04-20T06:20:24;99930.59;;;6.96;100.00
21728;BME280;11026;50.560;17.852;2023-04-20T06:22:52;99926.75;;;7.11;100.00
21728;BME280;11026;50.560;17.852;2023-04-20T06:25:19;99931.91;;;7.15;100.00
21728;BME280;11026;50.560;17.852;2023-04-20T06:27:47;99948.59;;;7.14;100.00
21728;BME280;11026;50.560;17.852;2023-04-20T06:30:17;99942.13;;;7.28;100.00
21728;BME280;11026;50.560;17.852;2023-04-20T06:32:44;99949.28;;;7.23;100.00
21728;BME280;11026;50.560;17.852;2023-04-20T06:35:12;99949.09;;;7.30;100.00
21728;BME280;11026;50.560;17.852;2023-04-20T06:37:39;99945.44;;;7.36;100.00
21728;BME280;11026;50.560;17.852;2023-04-20T06:40:07;99943.41;;;7.47;100.00
21728;BME280;11026;50.560;17.852;2023-04-20T06:42:35;99939.72;;;7.54;100.00
21728;BME280;11026;50.560;17.852;2023-04-20T06:45:05;99950.13;;;7.60;100.00
21728;BME280;11026;50.560;17.852;2023-04-20T06:47:36;99949.03;;;7.69;100.00
21728;BME280;11026;50.560;17.852;2023-04-20T06:50:05;99948.16;;;7.69;100.00
21728;BME280;11026;50.560;17.852;2023-04-20T06:52:37;99953.19;;;7.78;100.00
21728;BME280;11026;50.560;17.852;2023-04-20T06:55:04;99949.50;;;7.85;100.00
21728;BME280;11026;50.560;17.852;2023-04-20T06:57:32;99948.56;;;7.86;100.00
21728;BME280;11026;50.560;17.852;2023-04-20T07:00:00;99943.97;;;7.94;100.00
21728;BME280;11026;50.560;17.852;2023-04-20T07:02:27;99944.63;;;8.02;100.00
21728;BME280;11026;50.560;17.852;2023-04-20T07:04:59;99932.69;;;8.22;100.00
21728;BME280;11026;50.560;17.852;2023-04-20T07:07:28;99939.47;;;8.30;100.00
21728;BME280;11026;50.560;17.852;2023-04-20T07:09:55;99941.88;;;8.40;100.00
21728;BME280;11026;50.560;17.852;2023-04-20T07:12:24;99947.81;;;8.48;100.00
21728;BME280;11026;50.560;17.852;2023-04-20T07:14:57;99954.56;;;8.56;100.00
21728;BME280;11026;50.560;17.852;2023-04-20T07:17:28;99955.34;;;8.60;100.00
21728;BME280;11026;50.560;17.852;2023-04-20T07:19:55;99954.34;;;8.64;100.00
21728;BME280;11026;50.560;17.852;2023-04-20T07:22:24;99959.56;;;8.66;100.00
21728;BME280;11026;50.560;17.852;2023-04-20T07:24:51;99964.16;;;8.59;100.00
21728;BME280;11026;50.560;17.852;2023-04-20T07:27:18;99968.13;;;8.43;100.00
21728;BME280;11026;50.560;17.852;2023-04-20T07:29:46;99966.91;;;8.54;100.00
21728;BME280;11026;50.560;17.852;2023-04-20T07:32:13;99963.13;;;8.65;100.00
21728;BME280;11026;50.560;17.852;2023-04-20T07:34:40;99977.22;;;8.64;100.00
21728;BME280;11026;50.560;17.852;2023-04-20T07:37:08;99977.13;;;8.35;100.00
21728;BME280;11026;50.560;17.852;2023-04-20T07:39:35;99975.84;;;8.50;100.00
21728;BME280;11026;50.560;17.852;2023-04-20T07:42:03;99976.34;;;8.63;100.00
21728;BME280;11026;50.560;17.852;2023-04-20T07:44:31;99977.66;;;8.78;100.00
21728;BME280;11026;50.560;17.852;2023-04-20T07:46:58;99973.84;;;8.58;100.00
21728;BME280;11026;50.560;17.852;2023-04-20T07:49:28;99974.25;;;8.74;100.00
21728;BME280;11026;50.560;17.852;2023-04-20T07:51:55;99972.16;;;8.87;100.00
21728;BME280;11026;50.560;17.852;2023-04-20T07:54:41;99969.13;;;8.99;100.00
21728;BME280;11026;50.560;17.852;2023-04-20T07:57:08;99979.47;;;9.05;100.00
21728;BME280;11026;50.560;17.852;2023-04-20T07:59:38;99970.72;;;9.05;100.00
21728;BME280;11026;50.560;17.852;2023-04-20T08:02:07;99965.81;;;9.21;100.00
21728;BME280;11026;50.560;17.852;2023-04-20T08:04:35;99971.94;;;9.23;100.00
21728;BME280;11026;50.560;17.852;2023-04-20T08:07:07;99964.81;;;9.25;100.00
21728;BME280;11026;50.560;17.852;2023-04-20T08:09:34;99975.94;;;9.34;100.00
21728;BME280;11026;50.560;17.852;2023-04-20T08:12:02;99965.34;;;9.36;100.00
21728;BME280;11026;50.560;17.852;2023-04-20T08:14:30;99971.84;;;9.52;100.00
21728;BME280;11026;50.560;17.852;2023-04-20T08:16:58;99974.91;;;9.67;100.00
21728;BME280;11026;50.560;17.852;2023-04-20T08:19:26;99980.56;;;9.81;100.00
21728;BME280;11026;50.560;17.852;2023-04-20T08:21:53;99973.91;;;9.96;100.00
21728;BME280;11026;50.560;17.852;2023-04-20T08:24:20;99978.00;;;10.04;100.00
21728;BME280;11026;50.560;17.852;2023-04-20T08:26:48;99984.63;;;10.18;100.00
21728;BME280;11026;50.560;17.852;2023-04-20T08:29:16;99980.84;;;10.25;100.00
21728;BME280;11026;50.560;17.852;2023-04-20T08:31:43;99974.22;;;10.38;100.00
21728;BME280;11026;50.560;17.852;2023-04-20T08:34:10;99974.69;;;10.49;100.00
21728;BME280;11026;50.560;17.852;2023-04-20T08:36:38;99975.88;;;10.64;100.00
21728;BME280;11026;50.560;17.852;2023-04-20T08:39:11;99971.13;;;10.97;100.00
21728;BME280;11026;50.560;17.852;2023-04-20T08:41:39;99975.81;;;11.35;100.00
21728;BME280;11026;50.560;17.852;2023-04-20T08:44:07;99974.91;;;11.57;98.09
21728;BME280;11026;50.560;17.852;2023-04-20T08:46:35;99981.53;;;11.68;96.57
21728;BME280;11026;50.560;17.852;2023-04-20T08:49:03;99979.00;;;11.87;94.28
21728;BME280;11026;50.560;17.852;2023-04-20T08:51:30;99966.91;;;12.01;93.97
21728;BME280;11026;50.560;17.852;2023-04-20T08:54:05;99960.94;;;12.17;90.20
21728;BME280;11026;50.560;17.852;2023-04-20T08:56:35;99963.56;;;12.37;89.49
21728;BME280;11026;50.560;17.852;2023-04-20T08:59:05;99965.31;;;12.57;88.07
21728;BME280;11026;50.560;17.852;2023-04-20T09:01:36;99970.94;;;12.70;85.40
21728;BME280;11026;50.560;17.852;2023-04-20T09:06:47;99965.19;;;13.17;80.62
21728;BME280;11026;50.560;17.852;2023-04-20T09:09:20;99970.25;;;13.23;80.22
21728;BME280;11026;50.560;17.852;2023-04-20T09:12:07;99967.34;;;13.09;78.96
21728;BME280;11026;50.560;17.852;2023-04-20T09:14:46;99971.91;;;13.07;80.71
21728;BME280;11026;50.560;17.852;2023-04-20T09:17:14;99969.50;;;13.00;78.47
21728;BME280;11026;50.560;17.852;2023-04-20T09:19:50;99966.50;;;13.08;80.46
21728;BME280;11026;50.560;17.852;2023-04-20T09:22:29;99971.50;;;13.14;81.96
21728;BME280;11026;50.560;17.852;2023-04-20T09:24:58;99968.16;;;13.11;80.08
21728;BME280;11026;50.560;17.852;2023-04-20T09:27:26;99970.38;;;13.39;79.56
21728;BME280;11026;50.560;17.852;2023-04-20T09:30:00;99962.16;;;13.80;79.11
21728;BME280;11026;50.560;17.852;2023-04-20T09:32:29;99961.06;;;13.84;76.46
21728;BME280;11026;50.560;17.852;2023-04-20T09:34:58;99971.78;;;13.99;75.88
21728;BME280;11026;50.560;17.852;2023-04-20T09:37:26;99968.63;;;14.26;75.91
21728;BME280;11026;50.560;17.852;2023-04-20T09:39:58;99969.22;;;14.48;76.60
21728;BME280;11026;50.560;17.852;2023-04-20T09:42:27;99967.31;;;14.68;74.07
21728;BME280;11026;50.560;17.852;2023-04-20T09:44:56;99967.53;;;14.96;72.32
21728;BME280;11026;50.560;17.852;2023-04-20T09:47:23;99965.22;;;15.06;71.09
21728;BME280;11026;50.560;17.852;2023-04-20T09:49:55;99951.03;;;14.90;69.85
21728;BME280;11026;50.560;17.852;2023-04-20T09:52:27;99959.91;;;15.06;69.46
21728;BME280;11026;50.560;17.852;2023-04-20T09:54:55;99960.41;;;15.29;71.12
21728;BME280;11026;50.560;17.852;2023-04-20T09:57:24;99954.63;;;15.52;70.10
21728;BME280;11026;50.560;17.852;2023-04-20T09:59:53;99950.06;;;15.70;67.21
21728;BME280;11026;50.560;17.852;2023-04-20T10:02:21;99947.72;;;15.64;66.31
21728;BME280;11026;50.560;17.852;2023-04-20T10:04:53;99939.63;;;15.81;65.78
21728;BME280;11026;50.560;17.852;2023-04-20T10:07:25;99944.19;;;15.79;64.26
21728;BME280;11026;50.560;17.852;2023-04-20T10:10:12;99950.91;;;16.01;64.91
21728;BME280;11026;50.560;17.852;2023-04-20T10:12:53;99945.03;;;16.10;63.16
21728;BME280;11026;50.560;17.852;2023-04-20T10:15:22;99947.63;;;15.81;62.61
21728;BME280;11026;50.560;17.852;2023-04-20T10:17:53;99948.66;;;15.63;64.63
21728;BME280;11026;50.560;17.852;2023-04-20T10:20:25;99954.50;;;15.85;65.46
21728;BME280;11026;50.560;17.852;2023-04-20T10:23:06;99947.00;;;16.06;63.41
21728;BME280;11026;50.560;17.852;2023-04-20T10:25:34;99941.44;;;16.25;62.83
21728;BME280;11026;50.560;17.852;2023-04-20T10:28:04;99936.47;;;16.33;62.06
21728;BME280;11026;50.560;17.852;2023-04-20T10:30:34;99938.19;;;16.34;63.07
21728;BME280;11026;50.560;17.852;2023-04-20T10:33:07;99933.41;;;16.25;64.04
21728;BME280;11026;50.560;17.852;2023-04-20T10:35:49;99930.56;;;16.57;63.84
21728;BME280;11026;50.560;17.852;2023-04-20T10:38:35;99928.25;;;17.08;61.54
21728;BME280;11026;50.560;17.852;2023-04-20T10:41:07;99920.50;;;17.44;61.07
21728;BME280;11026;50.560;17.852;2023-04-20T10:43:35;99921.94;;;17.50;60.61
21728;BME280;11026;50.560;17.852;2023-04-20T10:46:22;99917.53;;;17.76;59.52
21728;BME280;11026;50.560;17.852;2023-04-20T10:49:00;99920.84;;;17.53;60.41
21728;BME280;11026;50.560;17.852;2023-04-20T10:51:28;99915.81;;;17.75;60.37
21728;BME280;11026;50.560;17.852;2023-04-20T10:54:04;99915.88;;;18.26;57.55
21728;BME280;11026;50.560;17.852;2023-04-20T10:56:39;99916.09;;;18.23;56.39
21728;BME280;11026;50.560;17.852;2023-04-20T10:59:09;99904.38;;;18.37;58.14
21728;BME280;11026;50.560;17.852;2023-04-20T11:01:37;99906.66;;;18.43;57.39
21728;BME280;11026;50.560;17.852;2023-04-20T11:04:30;99897.31;;;18.49;56.93
21728;BME280;11026;50.560;17.852;2023-04-20T11:07:06;99888.63;;;18.58;57.05
21728;BME280;11026;50.560;17.852;2023-04-20T11:09:35;99891.66;;;19.03;57.26
21728;BME280;11026;50.560;17.852;2023-04-20T11:12:06;99896.06;;;19.28;54.56
21728;BME280;11026;50.560;17.852;2023-04-20T11:14:36;99889.47;;;18.84;53.48
21728;BME280;11026;50.560;17.852;2023-04-20T11:17:05;99891.09;;;18.74;56.42
21728;BME280;11026;50.560;17.852;2023-04-20T11:19:34;99888.25;;;18.88;56.97
21728;BME280;11026;50.560;17.852;2023-04-20T11:22:03;99884.91;;;18.73;56.50
21728;BME280;11026;50.560;17.852;2023-04-20T11:24:33;99883.59;;;19.51;56.34
21728;BME280;11026;50.560;17.852;2023-04-20T11:27:03;99872.06;;;19.85;55.46
21728;BME280;11026;50.560;17.852;2023-04-20T11:29:34;99877.22;;;20.00;54.20
21728;BME280;11026;50.560;17.852;2023-04-20T11:32:05;99877.19;;;19.88;53.36
21728;BME280;11026;50.560;17.852;2023-04-20T11:34:34;99865.84;;;19.85;56.41
21728;BME280;11026;50.560;17.852;2023-04-20T11:37:10;99879.66;;;20.03;54.12
21728;BME280;11026;50.560;17.852;2023-04-20T11:39:40;99874.72;;;20.43;53.25
21728;BME280;11026;50.560;17.852;2023-04-20T11:42:08;99856.88;;;20.65;52.58
21728;BME280;11026;50.560;17.852;2023-04-20T11:44:35;99863.09;;;20.76;53.59
21728;BME280;11026;50.560;17.852;2023-04-20T11:47:04;99855.81;;;21.10;51.88
21728;BME280;11026;50.560;17.852;2023-04-20T11:49:32;99848.38;;;21.03;52.38
21728;BME280;11026;50.560;17.852;2023-04-20T11:51:59;99857.16;;;21.05;52.38
21728;BME280;11026;50.560;17.852;2023-04-20T11:54:27;99846.66;;;21.02;50.08
21728;BME280;11026;50.560;17.852;2023-04-20T11:56:56;99854.78;;;20.79;52.21
21728;BME280;11026;50.560;17.852;2023-04-20T11:59:29;99850.53;;;21.20;52.46
21728;BME280;11026;50.560;17.852;2023-04-20T12:01:57;99851.13;;;20.80;51.88
21728;BME280;11026;50.560;17.852;2023-04-20T12:04:24;99848.19;;;20.38;51.42
21728;BME280;11026;50.560;17.852;2023-04-20T12:06:52;99845.38;;;20.29;52.50
21728;BME280;11026;50.560;17.852;2023-04-20T12:09:21;99839.41;;;20.48;53.21
21728;BME280;11026;50.560;17.852;2023-04-20T12:11:48;99836.63;;;20.49;53.60
21728;BME280;11026;50.560;17.852;2023-04-20T12:14:15;99836.72;;;20.48;53.45
21728;BME280;11026;50.560;17.852;2023-04-20T12:16:43;99833.56;;;20.54;52.81
21728;BME280;11026;50.560;17.852;2023-04-20T12:19:11;99829.16;;;20.53;52.15
21728;BME280;11026;50.560;17.852;2023-04-20T12:21:40;99823.94;;;20.51;51.93
21728;BME280;11026;50.560;17.852;2023-04-20T12:24:07;99814.13;;;20.61;52.52
21728;BME280;11026;50.560;17.852;2023-04-20T12:26:35;99815.72;;;20.64;51.36
21728;BME280;11026;50.560;17.852;2023-04-20T12:29:04;99819.03;;;20.56;50.27
21728;BME280;11026;50.560;17.852;2023-04-20T12:31:33;99817.16;;;20.01;53.17
21728;BME280;11026;50.560;17.852;2023-04-20T12:34:07;99814.09;;;19.48;54.18
21728;BME280;11026;50.560;17.852;2023-04-20T12:36:35;99817.94;;;19.08;55.90
21728;BME280;11026;50.560;17.852;2023-04-20T12:39:02;99824.72;;;18.64;56.39
21728;BME280;11026;50.560;17.852;2023-04-20T12:41:30;99815.03;;;18.87;57.80
21728;BME280;11026;50.560;17.852;2023-04-20T12:43:59;99819.50;;;19.00;57.71
21728;BME280;11026;50.560;17.852;2023-04-20T12:46:31;99812.88;;;18.92;56.63
21728;BME280;11026;50.560;17.852;2023-04-20T12:48:59;99810.38;;;18.65;57.45
21728;BME280;11026;50.560;17.852;2023-04-20T12:51:27;99808.19;;;18.83;57.12
21728;BME280;11026;50.560;17.852;2023-04-20T12:53:55;99819.16;;;18.67;57.68
21728;BME280;11026;50.560;17.852;2023-04-20T12:56:22;99807.41;;;18.70;57.10
21728;BME280;11026;50.560;17.852;2023-04-20T12:58:50;99799.88;;;18.75;56.76
21728;BME280;11026;50.560;17.852;2023-04-20T13:01:17;99806.44;;;18.71;56.55
21728;BME280;11026;50.560;17.852;2023-04-20T13:03:45;99793.53;;;18.76;56.08